Weather observations for the past three days for
Annapolis, United States Naval Academy
Metric (Imperial)
Date Time (edt) Wind (kph) Vis. (km) Weather Sky Cond. Temperature (ºC) Relative Humidity Wind Chill (°C) Heat Index (°C) Pressure Precipitation (cm)
Air Dwpt 6 hour altimeter (cm) sea level (mb) 1 hr 3 hr 6 hr
Max. Min.
04 14:54 NW 13 16.09 Fair CLR 31.1 20.6 54% 34 75.95 1012.7
04 13:54 N 11 16.09 Fair CLR 29.4 20.6 29.4 23.3 59% 32 75.97 1013.0
04 12:54 NW 11 16.09 Fair CLR 28.9 20.6 61% 31 76.02 1013.6
04 11:54 NW 15 16.09 Fair CLR 27.8 20.6 65% 30 76.1 1014.5
04 10:54 NW 13 16.09 Fair CLR 27.2 20.6 67% 29 76.12 1014.9
04 09:54 N 9 16.09 Fair CLR 26.1 21.7 77% 28 76.1 1014.8
04 08:54 W 6 16.09 Fair CLR 25 21.1 79% 26 76.1 1014.5
04 07:54 Calm 16.09 Fair CLR 23.3 21.1 23.3 22.2 88% 76.1 1014.7
04 06:54 Vrbl 7 16.09 Partly Cloudy SCT075 22.2 21.1 94% 76.07 1014.3
04 05:54 W 6 16.09 Mostly Cloudy BKN070 22.8 21.7 94% 76.05 1014.0
04 04:54 SW 6 16.09 Fair CLR 22.2 21.1 94% 75.97 1013.1
04 03:54 Calm 16.09 Mostly Cloudy BKN110 22.2 21.1 94% 76.02 1013.6
04 02:54 SE 7 16.09 Fair CLR 22.8 21.1 90% 76 1013.5
04 01:54 S 6 16.09 Fair CLR 22.8 21.1 29.4 22.8 90% 75.97 1012.9 0.03 0.38
04 00:54 SW 9 11.27 Light Rain SCT044 BKN060 BKN090 23.3 21.1 88% 76.1 1014.7 0.36
03 23:54 Vrbl 7 16.09 Mostly Cloudy SCT070 BKN090 27.8 25 85% 32 75.95 1012.8
03 22:54 Calm 16.09 Fair CLR 27.8 24.4 82% 32 76 1013.4
03 21:54 Calm 16.09 Fair CLR 28.3 24.4 79% 33 76.02 1013.6
03 20:54 S 6 16.09 Fair CLR 28.3 24.4 79% 33 76.05 1014.0
03 19:54 Calm 16.09 Fair CLR 29.4 23.9 32.2 28.3 72% 34 76.05 1013.9
03 18:54 S 7 16.09 Fair CLR 30.6 23.3 65% 35 76 1013.4
03 17:54 SE 19 16.09 Fair CLR 30.6 25 72% 37 76 1013.4
03 16:54 Vrbl 7 16.09 Fair CLR 32.2 21.7 54% 36 76.02 1013.5
03 14:54 Vrbl 7 16.09 Fair CLR 31.7 21.7 55% 35 76.12 1015.0
03 13:54 W 9 16.09 Fair CLR 28.3 22.8 28.3 24.4 72% 32 76.17 1015.7
03 12:54 Vrbl 7 16.09 Fair CLR 27.2 23.9 82% 30 76.23 1016.3
03 11:54 Vrbl 11 16.09 Overcast OVC018 26.7 23.3 82% 29 76.35 1018.0
03 10:54 SW 13 16.09 Mostly Cloudy BKN015 26.7 23.3 82% 29 76.28 1017.0
03 09:54 S 13 16.09 Mostly Cloudy BKN016 25 23.3 90% 26 76.23 1016.5
03 07:54 N 6 16.09 Overcast OVC015 24.4 23.3 25 23.9 94% 24 76.4 1018.8
03 06:54 NE 9 16.09 Overcast OVC013 24.4 23.3 94% 24 76.35 1017.9
03 05:54 SE 20 16.09 Overcast OVC015 25 23.3 90% 26 76.25 1016.7
03 04:54 E 9 16.09 Overcast BKN015 OVC028 25 23.3 90% 26 76.28 1016.9
03 03:54 Calm 16.09 Overcast BKN015 BKN026 OVC065 24.4 22.8 91% 24 76.25 1016.9
03 02:54 S 7 16.09 A Few Clouds FEW013 FEW090 23.9 22.8 94% 23 76.23 1016.5
03 01:54 SE 11 16.09 Overcast OVC014 24.4 22.8 25 23.3 91% 24 76.25 1016.7 0.13
03 00:54 E 13 16.09 Partly Cloudy SCT015 24.4 22.8 91% 24 76.28 1017.1
02 23:54 NE 7 16.09 Mostly Cloudy SCT016 BKN080 24.4 22.8 91% 24 76.3 1017.4
02 22:54 Calm 16.09 Overcast BKN080 OVC100 23.9 22.2 90% 23 76.33 1017.6 0.13 0.13
02 21:54 NE 6 6.44 Fog/Mist CLR 23.9 21.7 88% 24 76.3 1017.5
02 20:54 NE 6 16.09 Fair CLR 23.3 21.7 91% 76.33 1017.6
02 19:54 NE 9 16.09 Fair CLR 23.9 22.2 24.4 22.8 90% 23 76.33 1017.7 0.03
02 18:54 Calm 16.09 A Few Clouds FEW005 24.4 21.1 82% 25 76.35 1018.0
02 17:54 Calm 16.09 Fair CLR 23.9 21.1 84% 24 76.38 1018.3
02 16:54 Calm 16.09 Fair CLR 23.9 21.1 84% 24 76.38 1018.3 0.03
02 15:54 S 9 16.09 Fair CLR 23.3 21.1 88% 76.38 1018.3
02 14:54 Calm 16.09 Light Rain BKN100 22.8 21.1 90% 76.38 1018.5 0.03
02 13:54 W 11 G 30 2.01 Rain Fog/Mist FEW026 SCT049 OVC070 22.8 21.1 28.3 22.8 90% 76.5 1020.2 0.3 0.3
02 12:54 E 7 16.09 Overcast OVC023 27.8 22.8 74% 31 76.43 1019.3
02 11:54 E 15 16.09 Fair CLR 27.2 22.8 77% 30 76.43 1019.0
02 10:54 E 9 16.09 Overcast OVC017 25.6 22.2 82% 27 76.45 1019.4
02 09:54 E 9 16.09 Mostly Cloudy BKN015 25.6 22.2 82% 27 76.4 1018.8
02 08:54 E 11 16.09 Overcast OVC012 25.6 22.8 85% 27 76.4 1018.6
02 07:54 NE 17 16.09 Fair CLR 25 22.8 26.1 23.9 88% 26 76.35 1018.0
02 06:54 N 6 16.09 Fair CLR 24.4 22.2 88% 25 76.35 1017.9
02 05:54 N 6 16.09 Fair CLR 24.4 21.7 85% 25 76.3 1017.5
02 04:54 Calm 16.09 Fair CLR 25 21.7 82% 26 76.28 1017.2
02 03:54 N 7 16.09 Fair CLR 25 21.7 82% 26 76.3 1017.3
02 02:54 E 7 16.09 Fair CLR 25 21.7 82% 26 76.25 1016.7
02 01:54 NE 15 16.09 A Few Clouds FEW040 26.1 22.2 31.1 26.1 79% 28 76.25 1016.6
02 00:54 Calm 16.09 Fair CLR 27.2 22.8 77% 30 76.23 1016.3
01 23:54 Calm 16.09 Fair CLR 28.3 23.3 74% 32 76.17 1015.8
01 22:54 W 7 16.09 Fair CLR 30 21.7 61% 33 76.1 1014.8
01 21:54 Vrbl 6 16.09 Fair CLR 30 22.8 65% 34 76.1 1014.8
01 20:54 Calm 16.09 Fair CLR 30 22.8 65% 34 76.05 1014.1
01 19:54 S 7 16.09 Fair CLR 30.6 23.9 33.9 30 67% 36 76 1013.3
01 18:54 Calm 16.09 A Few Clouds FEW065 31.1 25.6 73% 39 76.02 1013.6
01 17:54 S 15 16.09 Fair CLR 31.7 24.4 65% 38 76.02 1013.8
01 16:54 SE 15 16.09 Fair CLR 31.7 25.6 70% 40 76.07 1014.3
01 15:54 E 13 16.09 Partly Cloudy SCT110 32.2 24.4 63% 39 76.1 1014.7
Date Time (edt) Wind (kph) Vis. (km) Weather Sky Cond. Air Dwpt Max. Min. Relative Humidity Wind Chill (°C) Heat Index (°C) altimeter (cm) sea level (mb) 1 hr 3 hr 6 hr
6 hour
Temperature (ºC) Pressure Precipitation (cm)